createdAt,value
2023-04-21T00:01:21.805Z,6.00
2023-04-21T00:03:48.993Z,6.00
2023-04-21T00:06:21.812Z,5.00
2023-04-21T00:08:49.225Z,4.70
2023-04-21T00:11:15.972Z,8.40
2023-04-21T00:13:42.607Z,6.90
2023-04-21T00:16:09.314Z,4.40
2023-04-21T00:18:36.089Z,7.50
2023-04-21T00:21:03.033Z,4.60
2023-04-21T00:23:29.778Z,5.40
2023-04-21T00:25:56.410Z,5.10
2023-04-21T00:28:23.569Z,8.80
2023-04-21T00:30:50.193Z,4.50
2023-04-21T00:33:16.942Z,4.80
2023-04-21T00:35:43.673Z,5.30
2023-04-21T00:38:10.420Z,5.40
2023-04-21T00:40:37.179Z,4.80
2023-04-21T00:43:07.770Z,5.20
2023-04-21T00:45:34.437Z,6.70
2023-04-21T00:48:01.194Z,4.30
2023-04-21T00:50:28.128Z,6.10
2023-04-21T00:52:55.571Z,7.30
2023-04-21T00:55:24.266Z,6.30
2023-04-21T00:57:51.826Z,6.60
2023-04-21T01:00:19.181Z,7.20
2023-04-21T01:02:46.130Z,5.80
2023-04-21T01:05:15.934Z,4.10
2023-04-21T01:07:42.688Z,5.20
2023-04-21T01:10:09.930Z,6.60
2023-04-21T01:12:46.507Z,5.50
2023-04-21T01:15:14.059Z,4.40
2023-04-21T01:17:41.151Z,5.70
2023-04-21T01:20:12.865Z,6.00
2023-04-21T01:22:41.242Z,5.20
2023-04-21T01:25:08.807Z,8.20
2023-04-21T01:27:36.290Z,6.30
2023-04-21T01:30:03.638Z,8.10
2023-04-21T01:32:30.928Z,6.90
2023-04-21T01:34:57.920Z,4.50
2023-04-21T01:37:27.229Z,5.00
2023-04-21T01:39:55.499Z,5.20
2023-04-21T01:44:49.500Z,5.30
2023-04-21T01:47:18.086Z,7.20
2023-04-21T01:52:12.788Z,4.50
2023-04-21T01:54:39.354Z,7.10
2023-04-21T01:57:07.472Z,5.30
2023-04-21T01:59:34.346Z,5.10
2023-04-21T02:02:02.853Z,5.30
2023-04-21T02:04:29.893Z,7.20
2023-04-21T02:06:56.919Z,6.00
2023-04-21T02:09:23.553Z,4.60
2023-04-21T02:11:52.763Z,4.60
2023-04-21T02:14:19.703Z,5.20
2023-04-21T02:16:46.416Z,5.40
2023-04-21T02:19:12.967Z,5.30
2023-04-21T02:21:39.732Z,6.20
2023-04-21T02:24:06.408Z,6.90
2023-04-21T02:26:33.095Z,5.20
2023-04-21T02:29:00.458Z,6.80
2023-04-21T02:31:27.410Z,6.50
2023-04-21T02:33:54.195Z,6.00
2023-04-21T02:36:21.179Z,5.40
2023-04-21T02:38:47.853Z,6.30
2023-04-21T02:41:14.458Z,6.70
2023-04-21T02:43:41.197Z,5.40
2023-04-21T02:46:08.056Z,7.20
2023-04-21T02:48:35.508Z,5.40
2023-04-21T02:51:02.303Z,5.30
2023-04-21T02:53:28.973Z,5.30
2023-04-21T02:55:55.927Z,4.00
2023-04-21T02:58:23.080Z,4.70
2023-04-21T03:00:50.255Z,5.30
2023-04-21T03:03:17.189Z,6.80
2023-04-21T03:05:44.003Z,5.20
2023-04-21T03:08:10.520Z,5.50
2023-04-21T03:10:37.913Z,4.60
2023-04-21T03:13:04.863Z,6.50
2023-04-21T03:15:31.489Z,6.40
2023-04-21T03:18:00.981Z,5.50
2023-04-21T03:20:27.855Z,4.60
2023-04-21T03:22:54.681Z,4.30
2023-04-21T03:25:21.539Z,6.80
2023-04-21T03:27:48.313Z,5.70
2023-04-21T03:30:15.131Z,5.40
2023-04-21T03:32:41.761Z,6.10
2023-04-21T03:35:08.918Z,7.50
2023-04-21T03:37:35.946Z,6.10
2023-04-21T03:40:05.579Z,8.60
2023-04-21T03:42:32.414Z,8.40
2023-04-21T03:45:03.448Z,7.40
2023-04-21T03:47:32.967Z,5.00
2023-04-21T03:49:59.891Z,4.70
2023-04-21T03:52:26.526Z,6.50
2023-04-21T03:54:53.263Z,8.60
2023-04-21T03:57:20.008Z,7.60
2023-04-21T03:59:46.635Z,8.30
2023-04-21T04:02:13.197Z,8.30
2023-04-21T04:04:40.074Z,6.70
2023-04-21T04:07:08.218Z,7.90
2023-04-21T04:09:35.137Z,5.60
2023-04-21T04:12:02.951Z,7.50
2023-04-21T04:14:30.677Z,10.00
2023-04-21T04:16:58.654Z,7.00
2023-04-21T04:19:32.512Z,6.50
2023-04-21T04:22:00.518Z,9.00
2023-04-21T04:24:27.371Z,6.20
2023-04-21T04:26:57.588Z,8.40
2023-04-21T04:29:24.424Z,5.50
2023-04-21T04:31:51.083Z,7.30
2023-04-21T04:34:18.215Z,9.70
2023-04-21T04:36:47.308Z,6.20
2023-04-21T04:39:13.941Z,10.00
2023-04-21T04:41:40.904Z,20.40
2023-04-21T04:44:08.349Z,18.20
2023-04-21T04:46:35.030Z,17.60
2023-04-21T04:49:01.738Z,22.00
2023-04-21T04:51:28.460Z,25.70
2023-04-21T04:53:55.071Z,24.70
2023-04-21T04:56:23.094Z,26.10
2023-04-21T04:58:49.921Z,24.90
2023-04-21T05:01:16.667Z,27.40
2023-04-21T05:03:44.093Z,21.60
2023-04-21T05:06:11.673Z,21.60
2023-04-21T05:08:39.535Z,20.80
2023-04-21T05:11:07.404Z,17.20
2023-04-21T05:13:36.402Z,17.20
2023-04-21T05:16:05.042Z,15.50
2023-04-21T05:18:31.835Z,20.40
2023-04-21T05:20:58.880Z,17.80
2023-04-21T05:23:25.930Z,23.60
2023-04-21T05:25:54.356Z,20.40
2023-04-21T05:28:21.047Z,17.40
2023-04-21T05:30:47.781Z,17.60
2023-04-21T05:33:14.471Z,16.90
2023-04-21T05:35:41.268Z,17.60
2023-04-21T05:38:08.208Z,17.60
2023-04-21T05:40:34.950Z,10.90
2023-04-21T05:43:01.588Z,16.60
2023-04-21T05:45:28.340Z,14.40
2023-04-21T05:47:55.312Z,13.70
2023-04-21T05:50:22.123Z,14.60
2023-04-21T05:52:49.379Z,11.10
2023-04-21T05:55:15.898Z,11.60
2023-04-21T05:57:42.756Z,12.30
2023-04-21T06:00:10.624Z,11.90
2023-04-21T06:02:37.584Z,8.20
2023-04-21T06:05:05.694Z,11.20
2023-04-21T06:07:32.562Z,10.00
2023-04-21T06:09:59.220Z,10.00
2023-04-21T06:12:25.795Z,9.60
2023-04-21T06:14:56.805Z,10.30
2023-04-21T06:17:23.779Z,11.10
2023-04-21T06:19:52.650Z,9.40
2023-04-21T06:22:22.855Z,7.10
2023-04-21T06:24:49.820Z,7.10
2023-04-21T06:27:16.542Z,7.40
2023-04-21T06:29:43.275Z,6.60
2023-04-21T06:32:12.636Z,8.20
2023-04-21T06:34:39.426Z,7.00
2023-04-21T06:37:06.181Z,4.50
2023-04-21T06:39:32.792Z,7.80
2023-04-21T06:42:00.369Z,5.30
2023-04-21T06:44:27.244Z,5.80
2023-04-21T06:46:55.633Z,5.50
2023-04-21T06:49:22.442Z,6.70
2023-04-21T06:51:48.977Z,6.40
2023-04-21T06:54:15.717Z,6.90
2023-04-21T06:56:42.411Z,6.30
2023-04-21T06:59:09.585Z,4.30
2023-04-21T07:01:36.463Z,4.70
2023-04-21T07:04:05.489Z,5.10
2023-04-21T07:06:32.389Z,5.50
2023-04-21T07:08:59.732Z,4.70
2023-04-21T07:11:28.114Z,6.00
2023-04-21T07:13:55.365Z,4.20
2023-04-21T07:16:22.072Z,5.20
2023-04-21T07:18:49.266Z,4.40
2023-04-21T07:21:15.901Z,4.90
2023-04-21T07:23:42.849Z,4.60
2023-04-21T07:26:09.983Z,5.70
2023-04-21T07:28:37.973Z,5.40
2023-04-21T07:33:31.641Z,5.20
2023-04-21T07:35:58.503Z,5.20
2023-04-21T07:38:25.643Z,4.40
2023-04-21T07:40:53.001Z,3.50
2023-04-21T07:43:19.834Z,3.60
2023-04-21T07:45:46.619Z,3.80
2023-04-21T07:48:13.713Z,3.60
2023-04-21T07:50:40.835Z,4.40
2023-04-21T07:53:07.651Z,5.20
2023-04-21T07:55:36.600Z,5.50
2023-04-21T07:58:04.463Z,3.90
2023-04-21T08:00:31.519Z,4.20
2023-04-21T08:02:58.956Z,4.30
2023-04-21T08:05:28.769Z,3.20
2023-04-21T08:07:58.656Z,4.00
2023-04-21T08:10:25.575Z,4.20
2023-04-21T08:12:52.541Z,3.50
2023-04-21T08:15:19.517Z,3.90
2023-04-21T08:17:46.300Z,2.80
2023-04-21T08:20:12.969Z,2.60
2023-04-21T08:22:39.654Z,5.00
2023-04-21T08:25:06.889Z,2.30
2023-04-21T08:27:33.935Z,2.00
2023-04-21T08:30:00.740Z,3.60
2023-04-21T08:32:27.602Z,4.20
2023-04-21T08:34:54.234Z,2.90
2023-04-21T08:37:21.109Z,3.00
2023-04-21T08:39:50.208Z,3.30
2023-04-21T08:42:17.469Z,5.20
2023-04-21T08:44:44.130Z,2.80
2023-04-21T08:47:11.059Z,3.50
2023-04-21T08:49:38.157Z,3.60
2023-04-21T08:52:05.508Z,3.70
2023-04-21T08:54:32.773Z,4.70
2023-04-21T08:57:11.862Z,4.70
2023-04-21T08:59:41.774Z,5.80
2023-04-21T09:02:11.331Z,4.20
2023-04-21T09:04:42.540Z,6.70
2023-04-21T09:07:09.650Z,6.10
2023-04-21T09:09:52.802Z,4.80
2023-04-21T09:12:19.639Z,5.50
2023-04-21T09:14:46.376Z,4.40
2023-04-21T09:17:15.291Z,5.20
2023-04-21T09:19:44.554Z,5.60
2023-04-21T09:22:15.678Z,4.80
2023-04-21T09:24:46.370Z,5.70
2023-04-21T09:27:14.680Z,7.50
2023-04-21T09:29:46.995Z,6.10
2023-04-21T09:32:18.265Z,8.40
2023-04-21T09:34:45.037Z,5.70
2023-04-21T09:37:12.997Z,4.60
2023-04-21T09:39:56.647Z,7.70
2023-04-21T09:42:32.107Z,4.10
2023-04-21T09:45:16.529Z,6.90
2023-04-21T09:47:49.767Z,6.90
2023-04-21T09:50:20.635Z,6.70
2023-04-21T09:52:56.071Z,5.50
2023-04-21T09:55:26.501Z,7.70
2023-04-21T09:57:57.431Z,7.50
2023-04-21T10:02:58.938Z,3.80
2023-04-21T10:05:25.786Z,4.10
2023-04-21T10:07:52.649Z,7.10
2023-04-21T10:10:24.282Z,7.00
2023-04-21T10:12:51.309Z,4.90
2023-04-21T10:15:35.386Z,7.80
2023-04-21T10:18:18.807Z,6.10
2023-04-21T10:21:00.980Z,5.20
2023-04-21T10:23:49.874Z,6.50
2023-04-21T10:26:25.357Z,3.70
2023-04-21T10:29:04.595Z,4.80
2023-04-21T10:31:35.442Z,5.30
2023-04-21T10:34:08.156Z,4.10
2023-04-21T10:36:53.391Z,5.00
2023-04-21T10:39:36.088Z,4.40
2023-04-21T10:42:12.332Z,4.60
2023-04-21T10:44:52.449Z,5.00
2023-04-21T10:47:27.253Z,5.20
2023-04-21T10:49:55.980Z,4.60
2023-04-21T10:52:30.950Z,4.70
2023-04-21T10:55:02.941Z,4.30
2023-04-21T10:57:33.679Z,4.40
2023-04-21T11:00:00.401Z,4.60
2023-04-21T11:02:28.613Z,3.40
2023-04-21T11:04:55.745Z,3.90
2023-04-21T11:07:25.485Z,5.10
2023-04-21T11:09:58.466Z,4.10
2023-04-21T11:12:29.985Z,4.70
2023-04-21T11:14:57.695Z,3.80
2023-04-21T11:17:24.651Z,2.90
2023-04-21T11:19:55.207Z,5.40
2023-04-21T11:22:41.744Z,4.40
2023-04-21T11:27:42.392Z,5.70
2023-04-21T11:30:09.845Z,4.40
2023-04-21T11:32:38.190Z,5.00
2023-04-21T11:35:06.563Z,7.70
2023-04-21T11:40:07.098Z,4.80
2023-04-21T11:45:05.679Z,4.10
2023-04-21T11:47:32.604Z,8.00
2023-04-21T11:50:00.941Z,5.20
2023-04-21T11:52:38.609Z,4.20
2023-04-21T11:55:15.540Z,6.70
2023-04-21T11:57:43.149Z,4.50
2023-04-21T12:00:15.227Z,3.30
2023-04-21T12:05:13.938Z,4.50
2023-04-21T12:07:45.891Z,4.40
2023-04-21T12:10:13.551Z,5.50
2023-04-21T12:12:41.526Z,3.40
2023-04-21T12:15:11.594Z,4.30
2023-04-21T12:17:48.312Z,3.20
2023-04-21T12:27:52.391Z,4.00
2023-04-21T12:30:19.814Z,3.50
2023-04-21T12:32:47.536Z,3.50
2023-04-21T12:35:14.302Z,4.10
2023-04-21T12:37:41.327Z,5.20
2023-04-21T12:40:08.511Z,4.70
2023-04-21T12:42:37.434Z,4.60
2023-04-21T12:45:05.772Z,4.70
2023-04-21T12:47:32.322Z,4.10
2023-04-21T12:49:59.929Z,4.20
2023-04-21T12:52:26.602Z,3.40
2023-04-21T12:54:53.257Z,6.30
2023-04-21T12:57:22.437Z,5.60
2023-04-21T12:59:49.151Z,4.60
2023-04-21T13:02:16.158Z,4.00
2023-04-21T13:04:43.214Z,4.10
2023-04-21T13:07:09.968Z,4.00
2023-04-21T13:09:36.564Z,3.40
2023-04-21T13:12:03.352Z,4.10
2023-04-21T13:14:30.211Z,4.30
2023-04-21T13:16:56.924Z,4.80
2023-04-21T13:19:25.005Z,4.30
2023-04-21T13:24:21.607Z,4.10
2023-04-21T13:26:48.401Z,3.00
2023-04-21T13:29:15.561Z,4.20
2023-04-21T13:31:43.521Z,3.90
2023-04-21T13:34:10.396Z,4.20
2023-04-21T13:36:37.072Z,5.40
2023-04-21T13:39:04.968Z,4.70
2023-04-21T13:41:31.482Z,2.80
2023-04-21T13:43:58.214Z,3.80
2023-04-21T13:46:24.796Z,3.60
2023-04-21T13:48:51.699Z,4.20
2023-04-21T13:51:18.672Z,3.50
2023-04-21T13:53:45.478Z,4.80
2023-04-21T13:56:13.208Z,2.50
2023-04-21T13:58:41.395Z,4.80
2023-04-21T14:01:08.168Z,4.00
2023-04-21T14:03:35.230Z,5.00
2023-04-21T14:06:02.126Z,4.00
2023-04-21T14:08:30.153Z,3.60
2023-04-21T14:10:56.886Z,5.80
2023-04-21T14:13:34.545Z,3.30
2023-04-21T14:16:06.650Z,6.30
2023-04-21T14:18:33.327Z,3.60
2023-04-21T14:21:00.041Z,5.60
2023-04-21T14:23:26.633Z,3.80
2023-04-21T14:25:54.980Z,3.60
2023-04-21T14:28:21.910Z,3.70
2023-04-21T14:30:48.490Z,4.70
2023-04-21T14:33:15.664Z,4.20
2023-04-21T14:35:42.322Z,4.90
2023-04-21T14:38:08.949Z,3.70
2023-04-21T14:40:35.568Z,4.10
2023-04-21T14:43:05.261Z,5.20
2023-04-21T14:45:33.036Z,5.60
2023-04-21T14:47:59.736Z,5.10
2023-04-21T14:50:26.508Z,6.00
2023-04-21T14:52:53.536Z,8.60
2023-04-21T14:55:20.187Z,4.00
2023-04-21T14:57:46.904Z,4.70
2023-04-21T15:00:13.983Z,4.70
2023-04-21T15:02:40.798Z,4.90
2023-04-21T15:05:08.164Z,4.40
2023-04-21T15:07:35.320Z,4.60
2023-04-21T15:10:02.133Z,4.40
2023-04-21T15:12:28.905Z,3.40
2023-04-21T15:14:55.695Z,5.30
2023-04-21T15:17:22.383Z,6.30
2023-04-21T15:19:48.904Z,9.50
2023-04-21T15:22:15.585Z,5.40
2023-04-21T15:24:42.144Z,5.00
2023-04-21T15:27:08.724Z,5.30
2023-04-21T15:29:35.572Z,4.50
2023-04-21T15:32:02.455Z,7.40
2023-04-21T15:34:30.216Z,4.90
2023-04-21T15:36:56.901Z,3.80
2023-04-21T15:39:23.674Z,7.20
2023-04-21T15:41:50.301Z,4.70
2023-04-21T15:44:17.016Z,4.40
2023-04-21T15:46:43.767Z,6.90
2023-04-21T15:49:10.307Z,7.20
2023-04-21T15:51:37.148Z,5.20
2023-04-21T15:54:04.000Z,7.20
2023-04-21T15:56:30.725Z,6.00
2023-04-21T15:58:57.386Z,5.30
2023-04-21T16:01:24.136Z,7.50
2023-04-21T16:03:51.367Z,6.00
2023-04-21T16:06:20.173Z,6.10
2023-04-21T16:08:46.811Z,6.00
2023-04-21T16:11:13.445Z,4.70
2023-04-21T16:13:40.057Z,4.90
2023-04-21T16:16:08.094Z,6.20
2023-04-21T16:18:34.858Z,4.40
2023-04-21T16:21:01.457Z,6.10
2023-04-21T16:23:28.138Z,5.80
2023-04-21T16:25:54.876Z,9.90
2023-04-21T16:28:21.504Z,7.20
2023-04-21T16:30:49.440Z,5.00
2023-04-21T16:33:16.468Z,6.60
2023-04-21T16:37:53.342Z,4.50
2023-04-21T16:40:22.490Z,8.20
2023-04-21T16:42:50.741Z,4.90
2023-04-21T16:45:18.904Z,6.20
